sensor_id;sensor_type;location;lat;lon;timestamp;pressure;altitude;pressure_sealevel;temperature;humidity
7407;BME280;3745;56.964;24.128;2023-06-14T00:00:17;101878.59;;;16.24;100.00
7407;BME280;3745;56.964;24.128;2023-06-14T00:02:43;101876.00;;;16.20;100.00
7407;BME280;3745;56.964;24.128;2023-06-14T00:05:09;101872.63;;;16.21;100.00
7407;BME280;3745;56.964;24.128;2023-06-14T00:07:36;101870.94;;;16.23;100.00
7407;BME280;3745;56.964;24.128;2023-06-14T00:10:02;101877.72;;;16.21;100.00
7407;BME280;3745;56.964;24.128;2023-06-14T00:12:30;101845.19;;;15.96;100.00
7407;BME280;3745;56.964;24.128;2023-06-14T00:14:56;101872.47;;;16.06;100.00
7407;BME280;3745;56.964;24.128;2023-06-14T00:17:22;101874.19;;;16.05;100.00
7407;BME280;3745;56.964;24.128;2023-06-14T00:19:48;101863.84;;;15.92;100.00
7407;BME280;3745;56.964;24.128;2023-06-14T00:22:14;101875.84;;;15.99;100.00
7407;BME280;3745;56.964;24.128;2023-06-14T00:24:40;101879.22;;;15.98;100.00
7407;BME280;3745;56.964;24.128;2023-06-14T00:27:06;101810.75;;;15.54;100.00
7407;BME280;3745;56.964;24.128;2023-06-14T00:29:32;101853.53;;;15.80;100.00
7407;BME280;3745;56.964;24.128;2023-06-14T00:31:58;101848.31;;;15.67;100.00
7407;BME280;3745;56.964;24.128;2023-06-14T00:34:23;101836.28;;;15.54;100.00
7407;BME280;3745;56.964;24.128;2023-06-14T00:36:49;101875.72;;;15.84;100.00
7407;BME280;3745;56.964;24.128;2023-06-14T00:39:14;101880.78;;;15.81;100.00
7407;BME280;3745;56.964;24.128;2023-06-14T00:41:40;101846.53;;;15.60;100.00
7407;BME280;3745;56.964;24.128;2023-06-14T00:44:05;101890.94;;;15.75;100.00
7407;BME280;3745;56.964;24.128;2023-06-14T00:46:31;101894.31;;;15.73;100.00
7407;BME280;3745;56.964;24.128;2023-06-14T00:48:58;101874.59;;;15.56;100.00
7407;BME280;3745;56.964;24.128;2023-06-14T00:51:25;101856.53;;;15.42;100.00
7407;BME280;3745;56.964;24.128;2023-06-14T00:53:51;101899.31;;;15.61;100.00
7407;BME280;3745;56.964;24.128;2023-06-14T00:56:17;101900.00;;;15.48;100.00
7407;BME280;3745;56.964;24.128;2023-06-14T00:58:46;101894.94;;;15.50;100.00
7407;BME280;3745;56.964;24.128;2023-06-14T01:01:11;101894.09;;;15.49;100.00
7407;BME280;3745;56.964;24.128;2023-06-14T01:03:37;101893.28;;;15.55;100.00
7407;BME280;3745;56.964;24.128;2023-06-14T01:14:27;101859.94;;;15.44;100.00
7407;BME280;3745;56.964;24.128;2023-06-14T01:16:56;101885.63;;;15.53;100.00
7407;BME280;3745;56.964;24.128;2023-06-14T01:19:25;101885.47;;;15.44;100.00
7407;BME280;3745;56.964;24.128;2023-06-14T01:21:55;101888.97;;;15.49;100.00
7407;BME280;3745;56.964;24.128;2023-06-14T01:24:21;101875.22;;;15.41;100.00
7407;BME280;3745;56.964;24.128;2023-06-14T01:26:53;101888.16;;;15.52;100.00
7407;BME280;3745;56.964;24.128;2023-06-14T01:29:25;101893.34;;;15.61;100.00
7407;BME280;3745;56.964;24.128;2023-06-14T01:31:54;101897.66;;;15.66;100.00
7407;BME280;3745;56.964;24.128;2023-06-14T01:34:20;101852.34;;;15.46;100.00
7407;BME280;3745;56.964;24.128;2023-06-14T01:36:47;101894.34;;;15.77;100.00
7407;BME280;3745;56.964;24.128;2023-06-14T01:39:15;101877.28;;;15.72;100.00
7407;BME280;3745;56.964;24.128;2023-06-14T01:41:44;101888.50;;;15.88;100.00
7407;BME280;3745;56.964;24.128;2023-06-14T01:44:12;101887.66;;;15.88;100.00
7407;BME280;3745;56.964;24.128;2023-06-14T01:46:38;101879.94;;;15.82;100.00
7407;BME280;3745;56.964;24.128;2023-06-14T01:49:06;101886.78;;;15.86;100.00
7407;BME280;3745;56.964;24.128;2023-06-14T01:51:32;101876.56;;;15.84;100.00
7407;BME280;3745;56.964;24.128;2023-06-14T01:53:57;101882.63;;;15.97;100.00
7407;BME280;3745;56.964;24.128;2023-06-14T01:56:23;101884.34;;;15.98;100.00
7407;BME280;3745;56.964;24.128;2023-06-14T01:58:49;101888.66;;;16.06;100.00
7407;BME280;3745;56.964;24.128;2023-06-14T02:01:15;101878.44;;;16.05;100.00
7407;BME280;3745;56.964;24.128;2023-06-14T02:03:41;101886.19;;;16.14;100.00
7407;BME280;3745;56.964;24.128;2023-06-14T02:06:07;101872.44;;;16.03;100.00
7407;BME280;3745;56.964;24.128;2023-06-14T02:08:33;101898.16;;;16.18;100.00
7407;BME280;3745;56.964;24.128;2023-06-14T02:10:58;101892.16;;;16.16;100.00
7407;BME280;3745;56.964;24.128;2023-06-14T02:13:24;101891.34;;;16.20;100.00
7407;BME280;3745;56.964;24.128;2023-06-14T02:15:50;101873.47;;;16.20;100.00
7407;BME280;3745;56.964;24.128;2023-06-14T02:18:18;101834.94;;;15.93;100.00
7407;BME280;3745;56.964;24.128;2023-06-14T02:20:44;101864.09;;;16.22;100.00
7407;BME280;3745;56.964;24.128;2023-06-14T02:23:09;101841.84;;;16.06;100.00
7407;BME280;3745;56.964;24.128;2023-06-14T02:25:35;101881.22;;;16.35;100.00
7407;BME280;3745;56.964;24.128;2023-06-14T02:28:01;101896.63;;;16.44;100.00
7407;BME280;3745;56.964;24.128;2023-06-14T02:30:26;101808.53;;;15.94;100.00
7407;BME280;3745;56.964;24.128;2023-06-14T02:32:52;101894.94;;;16.46;100.00
7407;BME280;3745;56.964;24.128;2023-06-14T02:35:18;101858.97;;;16.19;100.00
7407;BME280;3745;56.964;24.128;2023-06-14T02:37:46;101831.63;;;16.09;100.00
7407;BME280;3745;56.964;24.128;2023-06-14T02:40:11;101845.38;;;16.20;100.00
7407;BME280;3745;56.964;24.128;2023-06-14T02:42:37;101853.88;;;16.22;100.00
7407;BME280;3745;56.964;24.128;2023-06-14T02:45:03;101867.59;;;16.30;100.00
7407;BME280;3745;56.964;24.128;2023-06-14T02:47:29;101862.44;;;16.27;100.00
7407;BME280;3745;56.964;24.128;2023-06-14T02:49:55;101881.22;;;16.35;100.00
7407;BME280;3745;56.964;24.128;2023-06-14T02:52:20;101891.53;;;16.44;100.00
7407;BME280;3745;56.964;24.128;2023-06-14T02:54:47;101883.00;;;16.45;100.00
7407;BME280;3745;56.964;24.128;2023-06-14T02:57:12;101847.88;;;16.15;100.00
7407;BME280;3745;56.964;24.128;2023-06-14T02:59:38;101892.41;;;16.49;100.00
7407;BME280;3745;56.964;24.128;2023-06-14T03:02:04;101889.81;;;16.46;100.00
7407;BME280;3745;56.964;24.128;2023-06-14T03:04:30;101900.06;;;16.52;100.00
7407;BME280;3745;56.964;24.128;2023-06-14T03:07:00;101865.09;;;16.39;100.00
7407;BME280;3745;56.964;24.128;2023-06-14T03:09:28;101883.91;;;16.53;100.00
7407;BME280;3745;56.964;24.128;2023-06-14T03:11:54;101889.91;;;16.55;100.00
7407;BME280;3745;56.964;24.128;2023-06-14T03:14:19;101875.34;;;16.47;100.00
7407;BME280;3745;56.964;24.128;2023-06-14T03:16:46;101905.31;;;16.64;100.00
7407;BME280;3745;56.964;24.128;2023-06-14T03:19:12;101854.03;;;16.46;100.00
7407;BME280;3745;56.964;24.128;2023-06-14T03:21:37;101884.03;;;16.64;100.00
7407;BME280;3745;56.964;24.128;2023-06-14T03:24:04;101907.06;;;16.74;100.00
7407;BME280;3745;56.964;24.128;2023-06-14T03:26:30;101895.13;;;16.73;100.00
7407;BME280;3745;56.964;24.128;2023-06-14T03:28:56;101881.50;;;16.74;100.00
7407;BME280;3745;56.964;24.128;2023-06-14T03:31:22;101890.13;;;16.92;100.00
7407;BME280;3745;56.964;24.128;2023-06-14T03:33:49;101905.53;;;17.04;100.00
7407;BME280;3745;56.964;24.128;2023-06-14T03:36:14;101875.63;;;16.92;100.00
7407;BME280;3745;56.964;24.128;2023-06-14T03:38:40;101904.78;;;17.27;100.00
7407;BME280;3745;56.964;24.128;2023-06-14T03:41:05;101892.84;;;17.25;100.00
7407;BME280;3745;56.964;24.128;2023-06-14T03:43:31;101894.56;;;17.41;100.00
7407;BME280;3745;56.964;24.128;2023-06-14T03:45:56;101900.56;;;17.46;100.00
7407;BME280;3745;56.964;24.128;2023-06-14T03:48:22;101910.91;;;17.67;100.00
7407;BME280;3745;56.964;24.128;2023-06-14T03:50:47;101872.41;;;17.54;100.00
7407;BME280;3745;56.964;24.128;2023-06-14T03:53:13;101907.53;;;17.90;100.00
7407;BME280;3745;56.964;24.128;2023-06-14T03:55:39;101877.63;;;17.78;100.00
7407;BME280;3745;56.964;24.128;2023-06-14T03:58:05;101917.78;;;18.08;100.00
7407;BME280;3745;56.964;24.128;2023-06-14T04:00:30;101919.50;;;18.15;100.00
7407;BME280;3745;56.964;24.128;2023-06-14T04:02:57;101906.66;;;18.22;100.00
7407;BME280;3745;56.964;24.128;2023-06-14T04:05:22;101892.16;;;18.17;100.00
7407;BME280;3745;56.964;24.128;2023-06-14T04:07:51;101897.28;;;18.29;100.00
7407;BME280;3745;56.964;24.128;2023-06-14T04:10:17;101910.94;;;18.58;100.00
7407;BME280;3745;56.964;24.128;2023-06-14T04:12:42;101906.63;;;18.71;100.00
7407;BME280;3745;56.964;24.128;2023-06-14T04:15:09;101898.97;;;18.66;100.00
7407;BME280;3745;56.964;24.128;2023-06-14T04:17:35;101899.81;;;18.73;100.00
7407;BME280;3745;56.964;24.128;2023-06-14T04:20:02;101916.03;;;18.85;100.00
7407;BME280;3745;56.964;24.128;2023-06-14T04:22:29;101904.03;;;18.87;100.00
7407;BME280;3745;56.964;24.128;2023-06-14T04:24:56;101922.78;;;19.05;100.00
7407;BME280;3745;56.964;24.128;2023-06-14T04:27:31;101919.34;;;19.15;100.00
7407;BME280;3745;56.964;24.128;2023-06-14T04:30:02;101913.34;;;19.19;100.00
7407;BME280;3745;56.964;24.128;2023-06-14T04:32:28;101914.16;;;19.27;100.00
7407;BME280;3745;56.964;24.128;2023-06-14T04:35:07;101912.41;;;19.32;100.00
7407;BME280;3745;56.964;24.128;2023-06-14T04:37:33;101912.41;;;19.44;100.00
7407;BME280;3745;56.964;24.128;2023-06-14T04:39:58;101902.13;;;19.38;100.00
7407;BME280;3745;56.964;24.128;2023-06-14T04:42:24;101894.41;;;19.50;100.00
7407;BME280;3745;56.964;24.128;2023-06-14T04:44:55;101916.53;;;19.66;100.00
7407;BME280;3745;56.964;24.128;2023-06-14T04:47:21;101905.31;;;19.79;100.00
7407;BME280;3745;56.964;24.128;2023-06-14T04:49:46;101910.41;;;19.88;100.00
7407;BME280;3745;56.964;24.128;2023-06-14T04:52:13;101916.31;;;19.96;100.00
7407;BME280;3745;56.964;24.128;2023-06-14T04:54:39;101916.25;;;20.07;100.00
7407;BME280;3745;56.964;24.128;2023-06-14T04:57:08;101915.28;;;20.19;100.00
7407;BME280;3745;56.964;24.128;2023-06-14T04:59:34;101882.78;;;20.15;100.00
7407;BME280;3745;56.964;24.128;2023-06-14T05:02:00;101915.06;;;20.46;100.00
7407;BME280;3745;56.964;24.128;2023-06-14T05:04:26;101916.66;;;20.59;99.57
7407;BME280;3745;56.964;24.128;2023-06-14T05:06:53;101922.63;;;20.67;96.83
7407;BME280;3745;56.964;24.128;2023-06-14T05:09:22;101895.16;;;20.65;95.56
7407;BME280;3745;56.964;24.128;2023-06-14T05:11:47;101861.81;;;20.57;95.60
7407;BME280;3745;56.964;24.128;2023-06-14T05:14:13;101817.41;;;20.40;95.33
7407;BME280;3745;56.964;24.128;2023-06-14T05:16:39;101905.13;;;20.95;92.65
7407;BME280;3745;56.964;24.128;2023-06-14T05:19:06;101903.28;;;21.06;91.65
7407;BME280;3745;56.964;24.128;2023-06-14T05:21:32;101883.50;;;21.13;87.55
7407;BME280;3745;56.964;24.128;2023-06-14T05:24:00;101906.44;;;21.31;82.82
7407;BME280;3745;56.964;24.128;2023-06-14T05:26:26;101905.53;;;21.35;80.54
7407;BME280;3745;56.964;24.128;2023-06-14T05:28:57;101899.50;;;21.36;79.73
7407;BME280;3745;56.964;24.128;2023-06-14T05:31:24;101897.69;;;21.42;78.40
7407;BME280;3745;56.964;24.128;2023-06-14T05:33:52;101917.09;;;21.66;78.00
7407;BME280;3745;56.964;24.128;2023-06-14T05:36:18;101899.13;;;21.61;78.37
7407;BME280;3745;56.964;24.128;2023-06-14T05:38:44;101824.94;;;21.27;78.63
7407;BME280;3745;56.964;24.128;2023-06-14T05:41:10;101923.63;;;21.91;77.51
7407;BME280;3745;56.964;24.128;2023-06-14T05:43:36;101927.03;;;21.93;77.51
7407;BME280;3745;56.964;24.128;2023-06-14T05:46:02;101869.03;;;21.65;75.59
7407;BME280;3745;56.964;24.128;2023-06-14T05:48:28;101898.72;;;21.90;75.64
7407;BME280;3745;56.964;24.128;2023-06-14T05:50:54;101918.28;;;22.03;75.18
7407;BME280;3745;56.964;24.128;2023-06-14T05:53:19;101919.78;;;22.17;76.73
7407;BME280;3745;56.964;24.128;2023-06-14T05:55:45;101872.81;;;21.98;75.76
7407;BME280;3745;56.964;24.128;2023-06-14T05:58:10;101921.25;;;22.33;77.41
7407;BME280;3745;56.964;24.128;2023-06-14T06:00:36;101892.13;;;22.25;75.84
7407;BME280;3745;56.964;24.128;2023-06-14T06:03:02;101896.34;;;22.30;75.55
7407;BME280;3745;56.964;24.128;2023-06-14T06:05:27;101840.63;;;22.19;72.69
7407;BME280;3745;56.964;24.128;2023-06-14T06:07:53;101922.19;;;22.76;72.43
7407;BME280;3745;56.964;24.128;2023-06-14T06:10:18;101855.66;;;22.43;71.36
7407;BME280;3745;56.964;24.128;2023-06-14T06:12:45;101837.84;;;22.31;71.15
7407;BME280;3745;56.964;24.128;2023-06-14T06:15:12;101896.31;;;22.79;71.12
7407;BME280;3745;56.964;24.128;2023-06-14T06:17:38;101894.38;;;22.90;68.16
7407;BME280;3745;56.964;24.128;2023-06-14T06:20:05;101915.97;;;23.28;65.63
7407;BME280;3745;56.964;24.128;2023-06-14T06:22:36;101926.66;;;23.52;65.56
7407;BME280;3745;56.964;24.128;2023-06-14T06:25:01;101910.16;;;23.58;65.91
7407;BME280;3745;56.964;24.128;2023-06-14T06:27:28;101923.69;;;23.69;62.57
7407;BME280;3745;56.964;24.128;2023-06-14T06:29:53;101901.59;;;23.56;61.10
7407;BME280;3745;56.964;24.128;2023-06-14T06:32:19;101925.03;;;23.85;61.55
7407;BME280;3745;56.964;24.128;2023-06-14T06:34:44;101933.13;;;24.08;61.89
7407;BME280;3745;56.964;24.128;2023-06-14T06:37:10;101891.94;;;23.99;61.67
7407;BME280;3745;56.964;24.128;2023-06-14T06:39:36;101841.72;;;23.72;54.61
7407;BME280;3745;56.964;24.128;2023-06-14T06:42:01;101838.75;;;23.89;55.40
7407;BME280;3745;56.964;24.128;2023-06-14T06:44:27;101859.75;;;24.09;56.95
7407;BME280;3745;56.964;24.128;2023-06-14T06:46:52;101929.78;;;24.71;54.34
7407;BME280;3745;56.964;24.128;2023-06-14T06:49:18;101931.47;;;24.72;54.67
7407;BME280;3745;56.964;24.128;2023-06-14T06:51:59;101936.66;;;24.72;54.90
7407;BME280;3745;56.964;24.128;2023-06-14T06:54:25;101933.75;;;24.84;53.72
7407;BME280;3745;56.964;24.128;2023-06-14T06:56:50;101937.97;;;24.88;52.76
7407;BME280;3745;56.964;24.128;2023-06-14T06:59:16;101932.53;;;24.97;53.19
7407;BME280;3745;56.964;24.128;2023-06-14T07:01:42;101891.53;;;24.82;51.08
7407;BME280;3745;56.964;24.128;2023-06-14T07:04:07;101924.19;;;24.86;48.39
7407;BME280;3745;56.964;24.128;2023-06-14T07:06:33;101929.53;;;24.80;47.83
7407;BME280;3745;56.964;24.128;2023-06-14T07:08:59;101945.16;;;24.77;44.17
7407;BME280;3745;56.964;24.128;2023-06-14T07:11:27;101933.53;;;24.61;45.20
7407;BME280;3745;56.964;24.128;2023-06-14T07:13:52;101946.16;;;24.71;45.68
7407;BME280;3745;56.964;24.128;2023-06-14T07:16:18;101932.63;;;24.94;47.43
7407;BME280;3745;56.964;24.128;2023-06-14T07:18:43;101918.75;;;24.95;46.16
7407;BME280;3745;56.964;24.128;2023-06-14T07:21:09;101835.03;;;24.64;46.80
7407;BME280;3745;56.964;24.128;2023-06-14T07:23:38;101923.00;;;25.28;45.18
7407;BME280;3745;56.964;24.128;2023-06-14T07:26:04;101951.69;;;25.52;43.75
7407;BME280;3745;56.964;24.128;2023-06-14T07:28:30;101936.13;;;25.52;43.96
7407;BME280;3745;56.964;24.128;2023-06-14T07:30:56;101932.81;;;25.47;43.75
7407;BME280;3745;56.964;24.128;2023-06-14T07:33:22;101927.41;;;25.25;44.32
7407;BME280;3745;56.964;24.128;2023-06-14T07:35:51;101867.22;;;24.86;44.19
7407;BME280;3745;56.964;24.128;2023-06-14T07:38:21;101931.56;;;25.30;44.76
7407;BME280;3745;56.964;24.128;2023-06-14T07:40:46;101905.47;;;25.37;44.41
7407;BME280;3745;56.964;24.128;2023-06-14T07:43:12;101929.06;;;25.57;44.74
7407;BME280;3745;56.964;24.128;2023-06-14T07:45:38;101882.91;;;25.39;44.17
7407;BME280;3745;56.964;24.128;2023-06-14T07:48:04;101943.59;;;25.90;44.08
7407;BME280;3745;56.964;24.128;2023-06-14T07:50:29;101929.50;;;25.97;43.87
7407;BME280;3745;56.964;24.128;2023-06-14T07:52:56;101885.97;;;25.80;42.02
7407;BME280;3745;56.964;24.128;2023-06-14T07:55:22;101941.47;;;26.01;41.49
7407;BME280;3745;56.964;24.128;2023-06-14T07:57:47;101952.56;;;25.80;41.57
7407;BME280;3745;56.964;24.128;2023-06-14T08:00:13;101924.53;;;25.63;40.67
7407;BME280;3745;56.964;24.128;2023-06-14T08:02:44;101918.38;;;25.66;40.74
7407;BME280;3745;56.964;24.128;2023-06-14T08:05:11;101878.66;;;25.38;39.91
7407;BME280;3745;56.964;24.128;2023-06-14T08:07:40;101940.06;;;25.91;40.24
7407;BME280;3745;56.964;24.128;2023-06-14T08:10:06;101930.75;;;25.85;39.61
7407;BME280;3745;56.964;24.128;2023-06-14T08:12:33;101896.16;;;25.59;40.00
7407;BME280;3745;56.964;24.128;2023-06-14T08:14:59;101932.28;;;25.91;40.51
7407;BME280;3745;56.964;24.128;2023-06-14T08:17:30;101840.09;;;25.55;40.62
7407;BME280;3745;56.964;24.128;2023-06-14T08:19:56;101948.75;;;26.18;40.31
7407;BME280;3745;56.964;24.128;2023-06-14T08:22:25;101929.81;;;26.14;39.61
7407;BME280;3745;56.964;24.128;2023-06-14T08:24:54;101847.56;;;25.64;39.44
7407;BME280;3745;56.964;24.128;2023-06-14T08:27:23;101929.50;;;25.97;39.82
7407;BME280;3745;56.964;24.128;2023-06-14T08:29:49;101820.78;;;25.35;39.16
7407;BME280;3745;56.964;24.128;2023-06-14T08:32:15;101914.94;;;25.93;39.40
7407;BME280;3745;56.964;24.128;2023-06-14T08:34:40;101909.25;;;25.82;39.56
7407;BME280;3745;56.964;24.128;2023-06-14T08:37:06;101866.81;;;25.57;38.24
7407;BME280;3745;56.964;24.128;2023-06-14T08:39:31;101925.72;;;26.07;38.66
7407;BME280;3745;56.964;24.128;2023-06-14T08:42:02;101894.78;;;26.01;38.52
7407;BME280;3745;56.964;24.128;2023-06-14T08:44:29;101888.88;;;25.70;39.21
7407;BME280;3745;56.964;24.128;2023-06-14T08:47:15;101856.81;;;25.72;38.42
7407;BME280;3745;56.964;24.128;2023-06-14T08:49:45;101863.09;;;25.92;38.50
7407;BME280;3745;56.964;24.128;2023-06-14T08:52:15;101841.38;;;25.94;38.81
7407;BME280;3745;56.964;24.128;2023-06-14T08:54:45;101771.69;;;25.59;36.88
7407;BME280;3745;56.964;24.128;2023-06-14T08:57:14;101926.31;;;26.42;37.60
7407;BME280;3745;56.964;24.128;2023-06-14T08:59:47;101921.47;;;26.56;36.24
7407;BME280;3745;56.964;24.128;2023-06-14T09:02:18;101723.34;;;25.30;36.79
7407;BME280;3745;56.964;24.128;2023-06-14T09:04:47;101814.44;;;25.72;36.59
7407;BME280;3745;56.964;24.128;2023-06-14T09:07:14;101890.59;;;26.23;36.88
7407;BME280;3745;56.964;24.128;2023-06-14T09:09:40;101905.22;;;26.51;36.92
7407;BME280;3745;56.964;24.128;2023-06-14T09:12:10;101883.91;;;26.41;36.30
7407;BME280;3745;56.964;24.128;2023-06-14T09:14:36;101849.81;;;26.27;36.71
7407;BME280;3745;56.964;24.128;2023-06-14T09:17:04;101855.97;;;26.48;36.75
7407;BME280;3745;56.964;24.128;2023-06-14T09:19:30;101878.06;;;26.59;36.31
7407;BME280;3745;56.964;24.128;2023-06-14T09:21:57;101894.94;;;26.71;36.17
7407;BME280;3745;56.964;24.128;2023-06-14T09:24:24;101806.09;;;26.13;36.60
7407;BME280;3745;56.964;24.128;2023-06-14T09:26:51;101899.13;;;26.75;36.29
7407;BME280;3745;56.964;24.128;2023-06-14T09:29:17;101897.13;;;26.83;35.89
7407;BME280;3745;56.964;24.128;2023-06-14T09:31:47;101853.38;;;26.48;36.13
7407;BME280;3745;56.964;24.128;2023-06-14T09:34:13;101753.97;;;25.96;35.97
7407;BME280;3745;56.964;24.128;2023-06-14T09:36:40;101819.88;;;26.17;36.14
7407;BME280;3745;56.964;24.128;2023-06-14T09:39:08;101897.88;;;26.62;36.63
7407;BME280;3745;56.964;24.128;2023-06-14T09:41:38;101895.13;;;26.66;37.02
7407;BME280;3745;56.964;24.128;2023-06-14T09:44:08;101902.63;;;26.74;35.57
7407;BME280;3745;56.964;24.128;2023-06-14T09:46:35;101757.50;;;25.94;35.98
7407;BME280;3745;56.964;24.128;2023-06-14T09:49:02;101861.41;;;26.65;35.75
7407;BME280;3745;56.964;24.128;2023-06-14T09:51:29;101823.81;;;26.52;36.23
7407;BME280;3745;56.964;24.128;2023-06-14T09:54:05;101745.22;;;26.23;35.92
7407;BME280;3745;56.964;24.128;2023-06-14T09:56:50;101883.56;;;27.21;36.18
7407;BME280;3745;56.964;24.128;2023-06-14T09:59:21;101666.13;;;25.85;36.43
7407;BME280;3745;56.964;24.128;2023-06-14T10:01:55;101874.97;;;27.19;36.04
7407;BME280;3745;56.964;24.128;2023-06-14T10:04:23;101822.69;;;26.82;35.67
7407;BME280;3745;56.964;24.128;2023-06-14T10:06:53;101727.13;;;26.44;35.91
7407;BME280;3745;56.964;24.128;2023-06-14T10:09:21;101738.75;;;26.57;36.04
7407;BME280;3745;56.964;24.128;2023-06-14T10:11:47;101672.75;;;26.17;36.23
7407;BME280;3745;56.964;24.128;2023-06-14T10:14:14;101748.56;;;26.72;34.30
7407;BME280;3745;56.964;24.128;2023-06-14T10:17:07;101692.59;;;26.42;34.52
7407;BME280;3745;56.964;24.128;2023-06-14T10:19:55;101753.31;;;26.84;35.00
7407;BME280;3745;56.964;24.128;2023-06-14T10:22:43;101763.13;;;26.99;34.95
7407;BME280;3745;56.964;24.128;2023-06-14T10:25:26;101751.00;;;26.98;35.43
7407;BME280;3745;56.964;24.128;2023-06-14T10:27:54;101799.75;;;27.36;35.68
7407;BME280;3745;56.964;24.128;2023-06-14T10:30:27;101688.53;;;26.58;36.25
7407;BME280;3745;56.964;24.128;2023-06-14T10:33:08;101724.06;;;26.79;36.16
7407;BME280;3745;56.964;24.128;2023-06-14T10:35:35;101726.97;;;26.93;35.63
7407;BME280;3745;56.964;24.128;2023-06-14T10:38:08;101874.16;;;27.84;35.39
7407;BME280;3745;56.964;24.128;2023-06-14T10:40:34;101794.53;;;27.36;34.68
7407;BME280;3745;56.964;24.128;2023-06-14T10:43:21;101740.47;;;27.44;35.11
7407;BME280;3745;56.964;24.128;2023-06-14T10:46:14;101855.69;;;28.10;34.19
7407;BME280;3745;56.964;24.128;2023-06-14T10:48:48;101855.94;;;28.24;34.75
7407;BME280;3745;56.964;24.128;2023-06-14T10:51:18;101835.09;;;28.24;33.78
7407;BME280;3745;56.964;24.128;2023-06-14T10:53:49;101851.97;;;28.36;32.92
7407;BME280;3745;56.964;24.128;2023-06-14T10:56:27;101847.72;;;28.33;33.69
7407;BME280;3745;56.964;24.128;2023-06-14T10:58:54;101778.09;;;27.98;33.40
7407;BME280;3745;56.964;24.128;2023-06-14T11:01:35;101848.47;;;28.56;33.13
7407;BME280;3745;56.964;24.128;2023-06-14T11:04:12;101838.75;;;28.59;33.22
7407;BME280;3745;56.964;24.128;2023-06-14T11:06:48;101848.59;;;28.52;33.36
7407;BME280;3745;56.964;24.128;2023-06-14T11:12:09;101809.84;;;28.26;33.34
7407;BME280;3745;56.964;24.128;2023-06-14T11:14:35;101835.94;;;28.45;33.75
7407;BME280;3745;56.964;24.128;2023-06-14T11:17:01;101841.16;;;28.45;33.73
7407;BME280;3745;56.964;24.128;2023-06-14T11:19:27;101760.91;;;27.94;33.18
7407;BME280;3745;56.964;24.128;2023-06-14T11:21:54;101669.28;;;27.05;34.77
7407;BME280;3745;56.964;24.128;2023-06-14T11:24:20;101836.38;;;27.74;34.75
7407;BME280;3745;56.964;24.128;2023-06-14T11:26:47;101832.84;;;27.75;34.13
7407;BME280;3745;56.964;24.128;2023-06-14T11:29:15;101789.84;;;27.24;35.25
7407;BME280;3745;56.964;24.128;2023-06-14T11:31:44;101807.66;;;27.33;33.50
7407;BME280;3745;56.964;24.128;2023-06-14T11:34:13;101836.22;;;27.13;40.20
7407;BME280;3745;56.964;24.128;2023-06-14T11:36:39;101826.38;;;26.75;47.16
7407;BME280;3745;56.964;24.128;2023-06-14T11:39:06;101796.13;;;26.51;49.18
7407;BME280;3745;56.964;24.128;2023-06-14T11:41:37;101807.59;;;26.68;49.78
7407;BME280;3745;56.964;24.128;2023-06-14T11:44:03;101836.91;;;26.72;50.82
7407;BME280;3745;56.964;24.128;2023-06-14T11:46:29;101824.97;;;26.43;51.18
7407;BME280;3745;56.964;24.128;2023-06-14T11:48:54;101819.47;;;26.27;50.79
7407;BME280;3745;56.964;24.128;2023-06-14T11:51:20;101839.59;;;25.96;51.80
7407;BME280;3745;56.964;24.128;2023-06-14T11:53:46;101846.75;;;25.88;52.32
7407;BME280;3745;56.964;24.128;2023-06-14T11:56:13;101849.25;;;25.91;53.18
7407;BME280;3745;56.964;24.128;2023-06-14T11:58:45;101823.34;;;25.65;53.32
7407;BME280;3745;56.964;24.128;2023-06-14T12:01:17;101845.84;;;25.37;54.48
7407;BME280;3745;56.964;24.128;2023-06-14T12:03:53;101809.94;;;24.95;55.03
7407;BME280;3745;56.964;24.128;2023-06-14T12:06:28;101806.94;;;24.81;55.14
7407;BME280;3745;56.964;24.128;2023-06-14T12:08:56;101835.50;;;25.07;55.77
7407;BME280;3745;56.964;24.128;2023-06-14T12:11:22;101814.75;;;25.07;56.37
7407;BME280;3745;56.964;24.128;2023-06-14T12:13:49;101830.41;;;25.32;56.18
7407;BME280;3745;56.964;24.128;2023-06-14T12:16:17;101726.63;;;24.52;54.99
7407;BME280;3745;56.964;24.128;2023-06-14T12:18:43;101843.91;;;25.15;55.19
7407;BME280;3745;56.964;24.128;2023-06-14T12:21:09;101806.13;;;24.77;55.43
7407;BME280;3745;56.964;24.128;2023-06-14T12:23:43;101839.09;;;24.72;56.34
7407;BME280;3745;56.964;24.128;2023-06-14T12:26:13;101836.28;;;24.49;57.92
7407;BME280;3745;56.964;24.128;2023-06-14T12:28:45;101756.44;;;24.03;58.98
7407;BME280;3745;56.964;24.128;2023-06-14T12:31:24;101755.75;;;23.98;59.76
7407;BME280;3745;56.964;24.128;2023-06-14T12:37:16;101820.50;;;24.27;61.17
7407;BME280;3745;56.964;24.128;2023-06-14T12:39:48;101819.19;;;24.44;61.74
7407;BME280;3745;56.964;24.128;2023-06-14T12:42:13;101732.78;;;23.86;61.12
7407;BME280;3745;56.964;24.128;2023-06-14T12:44:40;101650.81;;;23.23;62.01
7407;BME280;3745;56.964;24.128;2023-06-14T12:47:07;101819.88;;;24.50;61.90
7407;BME280;3745;56.964;24.128;2023-06-14T12:49:33;101722.00;;;24.34;61.57
7407;BME280;3745;56.964;24.128;2023-06-14T12:51:59;101606.88;;;23.88;58.46
7407;BME280;3745;56.964;24.128;2023-06-14T12:54:31;101637.72;;;24.25;56.35
7407;BME280;3745;56.964;24.128;2023-06-14T12:56:57;101615.66;;;24.13;56.35
7407;BME280;3745;56.964;24.128;2023-06-14T12:59:23;101590.56;;;23.86;56.52
7407;BME280;3745;56.964;24.128;2023-06-14T13:01:49;101813.59;;;25.17;56.86
7407;BME280;3745;56.964;24.128;2023-06-14T13:04:16;101806.00;;;25.11;57.06
7407;BME280;3745;56.964;24.128;2023-06-14T13:06:42;101693.41;;;24.66;56.80
7407;BME280;3745;56.964;24.128;2023-06-14T13:09:09;101817.13;;;25.43;56.25
7407;BME280;3745;56.964;24.128;2023-06-14T13:11:36;101598.84;;;23.97;53.69